Mbalmayo, Cameroon
Current Conditions -  °F | °C
As of 11:00 PM on Friday 19 Dec 2014 (Local Time) from FKYS Reporting Station
Scattered Clouds Scattered Clouds  
Wind Chill: 73°   Ceiling: Unl
Heat Index: 73°   Visibility: 4mi
Dew Point: 70°   Wind: 2mph
Humidity: 88%   Direction: NA
Pressure: 30"   Gusts: NA
Location:  3.52°N, 11.5°E
Report Text: FKYS 192200Z VRB02KT 6000 SCT006 23/21 Q1016 NOSIG
Loading
Personal Weather Stations






























Interactive Weather Map New forecast layout! Learn more

10-Day Weather Forecast

Advertisements
Track Severe Weather on mobile